sensor_id;sensor_type;location;lat;lon;timestamp;P1;durP1;ratioP1;P2;durP2;ratioP2
80891;SDS011;70343;51.530;5.050;2023-09-19T00:00:34;8.35;;;2.20;;
80891;SDS011;70343;51.530;5.050;2023-09-19T00:03:00;9.27;;;1.73;;
80891;SDS011;70343;51.530;5.050;2023-09-19T00:05:26;8.82;;;1.83;;
80891;SDS011;70343;51.530;5.050;2023-09-19T00:07:54;8.90;;;2.10;;
80891;SDS011;70343;51.530;5.050;2023-09-19T00:10:29;7.82;;;1.85;;
80891;SDS011;70343;51.530;5.050;2023-09-19T00:13:02;10.25;;;2.85;;
80891;SDS011;70343;51.530;5.050;2023-09-19T00:15:44;6.75;;;2.08;;
80891;SDS011;70343;51.530;5.050;2023-09-19T00:18:13;8.13;;;1.70;;
80891;SDS011;70343;51.530;5.050;2023-09-19T00:20:40;5.97;;;1.90;;
80891;SDS011;70343;51.530;5.050;2023-09-19T00:23:07;6.38;;;1.55;;
80891;SDS011;70343;51.530;5.050;2023-09-19T00:28:02;5.80;;;2.13;;
80891;SDS011;70343;51.530;5.050;2023-09-19T00:30:29;12.38;;;2.08;;
80891;SDS011;70343;51.530;5.050;2023-09-19T00:32:55;6.25;;;2.42;;
80891;SDS011;70343;51.530;5.050;2023-09-19T00:35:21;10.10;;;2.15;;
80891;SDS011;70343;51.530;5.050;2023-09-19T00:37:53;10.25;;;2.45;;
80891;SDS011;70343;51.530;5.050;2023-09-19T00:40:19;6.10;;;1.40;;
80891;SDS011;70343;51.530;5.050;2023-09-19T00:42:46;12.98;;;2.15;;
80891;SDS011;70343;51.530;5.050;2023-09-19T00:45:13;11.23;;;2.05;;
80891;SDS011;70343;51.530;5.050;2023-09-19T00:47:48;5.80;;;1.63;;
80891;SDS011;70343;51.530;5.050;2023-09-19T00:50:18;11.02;;;1.88;;
80891;SDS011;70343;51.530;5.050;2023-09-19T00:52:46;8.07;;;2.00;;
80891;SDS011;70343;51.530;5.050;2023-09-19T00:55:14;11.05;;;1.92;;
80891;SDS011;70343;51.530;5.050;2023-09-19T00:57:41;10.63;;;1.95;;
80891;SDS011;70343;51.530;5.050;2023-09-19T01:00:09;9.90;;;2.00;;
80891;SDS011;70343;51.530;5.050;2023-09-19T01:02:37;8.63;;;1.70;;
80891;SDS011;70343;51.530;5.050;2023-09-19T01:05:03;9.60;;;1.90;;
80891;SDS011;70343;51.530;5.050;2023-09-19T01:07:31;7.93;;;1.90;;
80891;SDS011;70343;51.530;5.050;2023-09-19T01:10:01;11.50;;;2.10;;
80891;SDS011;70343;51.530;5.050;2023-09-19T01:15:40;6.55;;;1.48;;
80891;SDS011;70343;51.530;5.050;2023-09-19T01:18:24;8.07;;;1.70;;
80891;SDS011;70343;51.530;5.050;2023-09-19T01:21:24;5.90;;;1.73;;
80891;SDS011;70343;51.530;5.050;2023-09-19T01:25:07;6.63;;;1.85;;
80891;SDS011;70343;51.530;5.050;2023-09-19T01:29:49;9.60;;;1.80;;
80891;SDS011;70343;51.530;5.050;2023-09-19T01:32:16;8.90;;;2.00;;
80891;SDS011;70343;51.530;5.050;2023-09-19T01:37:22;9.32;;;2.13;;
80891;SDS011;70343;51.530;5.050;2023-09-19T01:39:53;10.20;;;1.75;;
80891;SDS011;70343;51.530;5.050;2023-09-19T01:45:05;6.53;;;1.90;;
80891;SDS011;70343;51.530;5.050;2023-09-19T01:47:39;6.13;;;1.85;;
80891;SDS011;70343;51.530;5.050;2023-09-19T01:53:26;7.13;;;1.65;;
80891;SDS011;70343;51.530;5.050;2023-09-19T01:55:53;10.27;;;2.05;;
80891;SDS011;70343;51.530;5.050;2023-09-19T01:58:21;7.93;;;1.80;;
80891;SDS011;70343;51.530;5.050;2023-09-19T02:00:49;6.78;;;1.75;;
80891;SDS011;70343;51.530;5.050;2023-09-19T02:03:17;13.35;;;2.00;;
80891;SDS011;70343;51.530;5.050;2023-09-19T02:05:53;7.47;;;1.50;;
80891;SDS011;70343;51.530;5.050;2023-09-19T02:08:20;11.15;;;1.60;;
80891;SDS011;70343;51.530;5.050;2023-09-19T02:10:48;8.30;;;1.83;;
80891;SDS011;70343;51.530;5.050;2023-09-19T02:13:17;8.27;;;2.13;;
80891;SDS011;70343;51.530;5.050;2023-09-19T02:15:44;7.15;;;1.80;;
80891;SDS011;70343;51.530;5.050;2023-09-19T02:18:11;7.60;;;2.05;;
80891;SDS011;70343;51.530;5.050;2023-09-19T02:20:37;8.85;;;1.83;;
80891;SDS011;70343;51.530;5.050;2023-09-19T02:23:03;7.53;;;1.48;;
80891;SDS011;70343;51.530;5.050;2023-09-19T02:25:28;8.15;;;1.85;;
80891;SDS011;70343;51.530;5.050;2023-09-19T02:27:54;4.25;;;1.30;;
80891;SDS011;70343;51.530;5.050;2023-09-19T02:30:23;6.60;;;1.60;;
80891;SDS011;70343;51.530;5.050;2023-09-19T02:32:50;8.02;;;2.30;;
80891;SDS011;70343;51.530;5.050;2023-09-19T02:35:15;4.80;;;1.55;;
80891;SDS011;70343;51.530;5.050;2023-09-19T02:37:41;7.80;;;1.60;;
80891;SDS011;70343;51.530;5.050;2023-09-19T02:40:07;5.10;;;1.65;;
80891;SDS011;70343;51.530;5.050;2023-09-19T02:42:44;4.43;;;1.48;;
80891;SDS011;70343;51.530;5.050;2023-09-19T02:45:17;9.10;;;1.80;;
80891;SDS011;70343;51.530;5.050;2023-09-19T02:47:46;6.57;;;1.30;;
80891;SDS011;70343;51.530;5.050;2023-09-19T02:50:12;6.22;;;1.60;;
80891;SDS011;70343;51.530;5.050;2023-09-19T02:52:41;13.02;;;1.98;;
80891;SDS011;70343;51.530;5.050;2023-09-19T02:55:14;7.80;;;1.60;;
80891;SDS011;70343;51.530;5.050;2023-09-19T02:57:46;5.65;;;2.13;;
80891;SDS011;70343;51.530;5.050;2023-09-19T03:00:16;7.57;;;1.73;;
80891;SDS011;70343;51.530;5.050;2023-09-19T03:02:51;7.70;;;1.60;;
80891;SDS011;70343;51.530;5.050;2023-09-19T03:05:21;5.72;;;1.15;;
80891;SDS011;70343;51.530;5.050;2023-09-19T03:07:49;6.55;;;1.50;;
80891;SDS011;70343;51.530;5.050;2023-09-19T03:10:19;9.23;;;1.65;;
80891;SDS011;70343;51.530;5.050;2023-09-19T03:12:46;5.57;;;1.55;;
80891;SDS011;70343;51.530;5.050;2023-09-19T03:15:12;5.57;;;1.60;;
80891;SDS011;70343;51.530;5.050;2023-09-19T03:17:45;6.47;;;1.48;;
80891;SDS011;70343;51.530;5.050;2023-09-19T03:20:14;6.78;;;1.70;;
80891;SDS011;70343;51.530;5.050;2023-09-19T03:22:43;6.97;;;1.50;;
80891;SDS011;70343;51.530;5.050;2023-09-19T03:25:09;8.68;;;1.75;;
80891;SDS011;70343;51.530;5.050;2023-09-19T03:27:39;8.93;;;1.30;;
80891;SDS011;70343;51.530;5.050;2023-09-19T03:30:06;9.55;;;2.00;;
80891;SDS011;70343;51.530;5.050;2023-09-19T03:32:34;6.45;;;1.63;;
80891;SDS011;70343;51.530;5.050;2023-09-19T03:35:00;6.88;;;1.63;;
80891;SDS011;70343;51.530;5.050;2023-09-19T03:37:26;9.88;;;2.25;;
80891;SDS011;70343;51.530;5.050;2023-09-19T03:39:52;6.85;;;1.70;;
80891;SDS011;70343;51.530;5.050;2023-09-19T03:42:17;5.63;;;1.15;;
80891;SDS011;70343;51.530;5.050;2023-09-19T03:44:43;4.93;;;1.23;;
80891;SDS011;70343;51.530;5.050;2023-09-19T03:47:08;9.25;;;2.00;;
80891;SDS011;70343;51.530;5.050;2023-09-19T03:49:34;7.00;;;1.55;;
80891;SDS011;70343;51.530;5.050;2023-09-19T03:51:59;6.75;;;1.50;;
80891;SDS011;70343;51.530;5.050;2023-09-19T03:54:25;7.78;;;1.58;;
80891;SDS011;70343;51.530;5.050;2023-09-19T03:56:51;4.38;;;1.50;;
80891;SDS011;70343;51.530;5.050;2023-09-19T03:59:16;4.60;;;1.35;;
80891;SDS011;70343;51.530;5.050;2023-09-19T04:01:43;8.50;;;1.80;;
80891;SDS011;70343;51.530;5.050;2023-09-19T04:04:09;7.93;;;1.60;;
80891;SDS011;70343;51.530;5.050;2023-09-19T04:06:35;5.93;;;1.83;;
80891;SDS011;70343;51.530;5.050;2023-09-19T04:09:04;7.43;;;1.50;;
80891;SDS011;70343;51.530;5.050;2023-09-19T04:11:32;8.93;;;1.85;;
80891;SDS011;70343;51.530;5.050;2023-09-19T04:13:58;7.00;;;1.95;;
80891;SDS011;70343;51.530;5.050;2023-09-19T04:16:24;5.53;;;1.23;;
80891;SDS011;70343;51.530;5.050;2023-09-19T04:18:49;9.73;;;1.80;;
80891;SDS011;70343;51.530;5.050;2023-09-19T04:21:15;10.23;;;1.88;;
80891;SDS011;70343;51.530;5.050;2023-09-19T04:23:41;4.32;;;1.08;;
80891;SDS011;70343;51.530;5.050;2023-09-19T04:26:06;7.72;;;1.55;;
80891;SDS011;70343;51.530;5.050;2023-09-19T04:28:32;6.18;;;1.55;;
80891;SDS011;70343;51.530;5.050;2023-09-19T04:30:59;9.88;;;1.65;;
80891;SDS011;70343;51.530;5.050;2023-09-19T04:33:25;7.63;;;1.90;;
80891;SDS011;70343;51.530;5.050;2023-09-19T04:35:52;11.48;;;2.40;;
80891;SDS011;70343;51.530;5.050;2023-09-19T04:38:18;8.43;;;1.77;;
80891;SDS011;70343;51.530;5.050;2023-09-19T04:40:44;9.70;;;1.60;;
80891;SDS011;70343;51.530;5.050;2023-09-19T04:43:10;11.80;;;2.00;;
80891;SDS011;70343;51.530;5.050;2023-09-19T04:45:36;7.32;;;1.77;;
80891;SDS011;70343;51.530;5.050;2023-09-19T04:48:04;8.40;;;1.70;;
80891;SDS011;70343;51.530;5.050;2023-09-19T04:50:31;7.32;;;1.83;;
80891;SDS011;70343;51.530;5.050;2023-09-19T04:52:57;9.40;;;1.63;;
80891;SDS011;70343;51.530;5.050;2023-09-19T04:55:23;6.93;;;1.33;;
80891;SDS011;70343;51.530;5.050;2023-09-19T04:57:49;7.95;;;1.45;;
80891;SDS011;70343;51.530;5.050;2023-09-19T05:00:19;7.10;;;1.55;;
80891;SDS011;70343;51.530;5.050;2023-09-19T05:02:52;7.30;;;1.65;;
80891;SDS011;70343;51.530;5.050;2023-09-19T05:05:21;9.38;;;1.60;;
80891;SDS011;70343;51.530;5.050;2023-09-19T05:07:47;7.03;;;1.55;;
80891;SDS011;70343;51.530;5.050;2023-09-19T05:10:13;7.22;;;1.60;;
80891;SDS011;70343;51.530;5.050;2023-09-19T05:12:39;10.80;;;1.98;;
80891;SDS011;70343;51.530;5.050;2023-09-19T05:15:06;6.45;;;1.63;;
80891;SDS011;70343;51.530;5.050;2023-09-19T05:17:33;9.43;;;1.55;;
80891;SDS011;70343;51.530;5.050;2023-09-19T05:19:59;5.07;;;1.17;;
80891;SDS011;70343;51.530;5.050;2023-09-19T05:22:50;6.45;;;1.70;;
80891;SDS011;70343;51.530;5.050;2023-09-19T05:25:22;7.93;;;2.10;;
80891;SDS011;70343;51.530;5.050;2023-09-19T05:27:47;6.40;;;1.50;;
80891;SDS011;70343;51.530;5.050;2023-09-19T05:30:13;11.45;;;2.65;;
80891;SDS011;70343;51.530;5.050;2023-09-19T05:32:40;9.15;;;1.65;;
80891;SDS011;70343;51.530;5.050;2023-09-19T05:35:06;6.63;;;1.77;;
80891;SDS011;70343;51.530;5.050;2023-09-19T05:37:34;9.23;;;1.85;;
80891;SDS011;70343;51.530;5.050;2023-09-19T05:40:02;7.63;;;1.75;;
80891;SDS011;70343;51.530;5.050;2023-09-19T05:42:34;7.03;;;1.75;;
80891;SDS011;70343;51.530;5.050;2023-09-19T05:45:00;10.05;;;1.40;;
80891;SDS011;70343;51.530;5.050;2023-09-19T05:47:25;5.43;;;1.80;;
80891;SDS011;70343;51.530;5.050;2023-09-19T05:49:51;12.05;;;1.83;;
80891;SDS011;70343;51.530;5.050;2023-09-19T05:52:17;8.18;;;1.45;;
80891;SDS011;70343;51.530;5.050;2023-09-19T05:54:43;9.63;;;2.45;;
80891;SDS011;70343;51.530;5.050;2023-09-19T05:57:08;9.93;;;1.92;;
80891;SDS011;70343;51.530;5.050;2023-09-19T05:59:35;7.40;;;1.60;;
80891;SDS011;70343;51.530;5.050;2023-09-19T06:02:01;10.82;;;2.05;;
80891;SDS011;70343;51.530;5.050;2023-09-19T06:04:26;6.38;;;1.40;;
80891;SDS011;70343;51.530;5.050;2023-09-19T06:06:52;7.80;;;1.88;;
80891;SDS011;70343;51.530;5.050;2023-09-19T06:09:17;8.15;;;1.90;;
80891;SDS011;70343;51.530;5.050;2023-09-19T06:11:44;8.48;;;2.50;;
80891;SDS011;70343;51.530;5.050;2023-09-19T06:14:09;6.00;;;2.35;;
80891;SDS011;70343;51.530;5.050;2023-09-19T06:16:35;7.22;;;1.75;;
80891;SDS011;70343;51.530;5.050;2023-09-19T06:19:03;9.27;;;1.80;;
80891;SDS011;70343;51.530;5.050;2023-09-19T06:21:31;8.40;;;1.73;;
80891;SDS011;70343;51.530;5.050;2023-09-19T06:23:57;6.20;;;1.70;;
80891;SDS011;70343;51.530;5.050;2023-09-19T06:26:23;8.43;;;1.70;;
80891;SDS011;70343;51.530;5.050;2023-09-19T06:28:48;10.52;;;1.85;;
80891;SDS011;70343;51.530;5.050;2023-09-19T06:31:14;8.32;;;1.75;;
80891;SDS011;70343;51.530;5.050;2023-09-19T06:33:39;6.30;;;1.77;;
80891;SDS011;70343;51.530;5.050;2023-09-19T06:36:05;5.50;;;2.00;;
80891;SDS011;70343;51.530;5.050;2023-09-19T06:38:31;7.03;;;1.95;;
80891;SDS011;70343;51.530;5.050;2023-09-19T06:40:59;5.28;;;1.48;;
80891;SDS011;70343;51.530;5.050;2023-09-19T06:43:26;8.82;;;1.85;;
80891;SDS011;70343;51.530;5.050;2023-09-19T06:45:53;9.65;;;1.90;;
80891;SDS011;70343;51.530;5.050;2023-09-19T06:48:20;8.18;;;2.17;;
80891;SDS011;70343;51.530;5.050;2023-09-19T06:50:46;12.60;;;2.10;;
80891;SDS011;70343;51.530;5.050;2023-09-19T06:53:13;6.40;;;1.60;;
80891;SDS011;70343;51.530;5.050;2023-09-19T06:55:39;8.40;;;1.90;;
80891;SDS011;70343;51.530;5.050;2023-09-19T06:58:05;8.77;;;1.80;;
80891;SDS011;70343;51.530;5.050;2023-09-19T07:00:31;9.20;;;1.90;;
80891;SDS011;70343;51.530;5.050;2023-09-19T07:03:07;8.82;;;1.83;;
80891;SDS011;70343;51.530;5.050;2023-09-19T07:05:37;7.30;;;1.63;;
80891;SDS011;70343;51.530;5.050;2023-09-19T07:08:04;14.63;;;2.30;;
80891;SDS011;70343;51.530;5.050;2023-09-19T07:10:31;7.43;;;1.33;;
80891;SDS011;70343;51.530;5.050;2023-09-19T07:12:57;8.30;;;1.80;;
80891;SDS011;70343;51.530;5.050;2023-09-19T07:15:24;8.02;;;2.15;;
80891;SDS011;70343;51.530;5.050;2023-09-19T07:17:51;7.28;;;1.63;;
80891;SDS011;70343;51.530;5.050;2023-09-19T07:20:18;11.30;;;1.90;;
80891;SDS011;70343;51.530;5.050;2023-09-19T07:22:44;6.85;;;1.65;;
80891;SDS011;70343;51.530;5.050;2023-09-19T07:25:09;7.53;;;1.60;;
80891;SDS011;70343;51.530;5.050;2023-09-19T07:27:35;9.20;;;1.75;;
80891;SDS011;70343;51.530;5.050;2023-09-19T07:30:00;5.70;;;1.48;;
80891;SDS011;70343;51.530;5.050;2023-09-19T07:32:26;10.77;;;2.35;;
80891;SDS011;70343;51.530;5.050;2023-09-19T07:34:51;8.30;;;1.75;;
80891;SDS011;70343;51.530;5.050;2023-09-19T07:37:17;9.20;;;2.17;;
80891;SDS011;70343;51.530;5.050;2023-09-19T07:39:42;6.10;;;1.90;;
80891;SDS011;70343;51.530;5.050;2023-09-19T07:42:10;7.25;;;1.95;;
80891;SDS011;70343;51.530;5.050;2023-09-19T07:44:36;8.80;;;2.83;;
80891;SDS011;70343;51.530;5.050;2023-09-19T07:47:02;10.77;;;2.30;;
80891;SDS011;70343;51.530;5.050;2023-09-19T07:49:28;6.95;;;1.80;;
80891;SDS011;70343;51.530;5.050;2023-09-19T07:51:54;6.93;;;2.17;;
80891;SDS011;70343;51.530;5.050;2023-09-19T07:54:20;7.40;;;2.03;;
80891;SDS011;70343;51.530;5.050;2023-09-19T07:56:46;6.50;;;1.85;;
80891;SDS011;70343;51.530;5.050;2023-09-19T07:59:12;11.70;;;2.95;;
80891;SDS011;70343;51.530;5.050;2023-09-19T08:01:38;10.73;;;2.20;;
80891;SDS011;70343;51.530;5.050;2023-09-19T08:04:07;11.32;;;2.33;;
80891;SDS011;70343;51.530;5.050;2023-09-19T08:06:32;7.45;;;1.90;;
80891;SDS011;70343;51.530;5.050;2023-09-19T08:08:58;9.63;;;2.03;;
80891;SDS011;70343;51.530;5.050;2023-09-19T08:11:25;11.27;;;2.45;;
80891;SDS011;70343;51.530;5.050;2023-09-19T08:13:55;7.88;;;1.90;;
80891;SDS011;70343;51.530;5.050;2023-09-19T08:16:21;11.85;;;1.85;;
80891;SDS011;70343;51.530;5.050;2023-09-19T08:18:47;7.55;;;1.58;;
80891;SDS011;70343;51.530;5.050;2023-09-19T08:21:13;9.77;;;2.10;;
80891;SDS011;70343;51.530;5.050;2023-09-19T08:23:40;8.90;;;1.90;;
80891;SDS011;70343;51.530;5.050;2023-09-19T08:26:07;13.48;;;2.33;;
80891;SDS011;70343;51.530;5.050;2023-09-19T08:28:33;10.48;;;2.10;;
80891;SDS011;70343;51.530;5.050;2023-09-19T08:31:05;11.55;;;1.95;;
80891;SDS011;70343;51.530;5.050;2023-09-19T08:33:35;8.57;;;2.20;;
80891;SDS011;70343;51.530;5.050;2023-09-19T08:36:02;10.95;;;2.08;;
80891;SDS011;70343;51.530;5.050;2023-09-19T08:38:31;9.75;;;2.05;;
80891;SDS011;70343;51.530;5.050;2023-09-19T08:40:58;7.35;;;1.58;;
80891;SDS011;70343;51.530;5.050;2023-09-19T08:43:25;8.13;;;1.60;;
80891;SDS011;70343;51.530;5.050;2023-09-19T08:46:11;13.50;;;1.88;;
80891;SDS011;70343;51.530;5.050;2023-09-19T08:48:44;9.05;;;2.10;;
80891;SDS011;70343;51.530;5.050;2023-09-19T08:51:34;9.63;;;2.30;;
80891;SDS011;70343;51.530;5.050;2023-09-19T08:54:10;9.13;;;1.73;;
80891;SDS011;70343;51.530;5.050;2023-09-19T08:56:45;4.78;;;1.58;;
80891;SDS011;70343;51.530;5.050;2023-09-19T08:59:13;7.20;;;1.73;;
80891;SDS011;70343;51.530;5.050;2023-09-19T09:01:39;9.48;;;2.10;;
80891;SDS011;70343;51.530;5.050;2023-09-19T09:04:07;9.05;;;2.20;;
80891;SDS011;70343;51.530;5.050;2023-09-19T09:06:35;7.15;;;1.98;;
80891;SDS011;70343;51.530;5.050;2023-09-19T09:09:02;13.25;;;2.28;;
80891;SDS011;70343;51.530;5.050;2023-09-19T09:11:32;10.45;;;2.15;;
80891;SDS011;70343;51.530;5.050;2023-09-19T09:13:58;8.32;;;2.53;;
80891;SDS011;70343;51.530;5.050;2023-09-19T09:16:24;7.32;;;1.85;;
80891;SDS011;70343;51.530;5.050;2023-09-19T09:18:51;9.15;;;1.88;;
80891;SDS011;70343;51.530;5.050;2023-09-19T09:21:18;11.35;;;1.88;;
80891;SDS011;70343;51.530;5.050;2023-09-19T09:23:44;7.50;;;1.90;;
80891;SDS011;70343;51.530;5.050;2023-09-19T09:26:09;11.75;;;2.20;;
80891;SDS011;70343;51.530;5.050;2023-09-19T09:28:35;8.88;;;1.65;;
80891;SDS011;70343;51.530;5.050;2023-09-19T09:31:04;8.85;;;2.03;;
80891;SDS011;70343;51.530;5.050;2023-09-19T09:33:37;5.88;;;1.50;;
80891;SDS011;70343;51.530;5.050;2023-09-19T09:36:04;6.95;;;1.70;;
80891;SDS011;70343;51.530;5.050;2023-09-19T09:38:44;4.13;;;1.80;;
80891;SDS011;70343;51.530;5.050;2023-09-19T09:41:11;9.93;;;2.28;;
80891;SDS011;70343;51.530;5.050;2023-09-19T09:43:41;6.45;;;2.22;;
80891;SDS011;70343;51.530;5.050;2023-09-19T09:49:04;7.97;;;2.40;;
80891;SDS011;70343;51.530;5.050;2023-09-19T09:52:04;11.82;;;1.98;;
80891;SDS011;70343;51.530;5.050;2023-09-19T09:54:58;8.90;;;1.77;;
80891;SDS011;70343;51.530;5.050;2023-09-19T09:57:33;10.85;;;1.67;;
80891;SDS011;70343;51.530;5.050;2023-09-19T09:59:59;5.45;;;1.67;;
80891;SDS011;70343;51.530;5.050;2023-09-19T10:02:41;6.75;;;1.63;;
80891;SDS011;70343;51.530;5.050;2023-09-19T10:07:44;9.10;;;1.92;;
80891;SDS011;70343;51.530;5.050;2023-09-19T10:10:38;9.07;;;1.80;;
80891;SDS011;70343;51.530;5.050;2023-09-19T10:13:08;7.60;;;1.45;;
80891;SDS011;70343;51.530;5.050;2023-09-19T10:15:37;8.20;;;2.13;;
80891;SDS011;70343;51.530;5.050;2023-09-19T10:18:06;8.23;;;1.92;;
80891;SDS011;70343;51.530;5.050;2023-09-19T10:20:35;6.97;;;1.60;;
80891;SDS011;70343;51.530;5.050;2023-09-19T10:23:07;10.00;;;1.60;;
80891;SDS011;70343;51.530;5.050;2023-09-19T10:25:38;8.18;;;2.58;;
80891;SDS011;70343;51.530;5.050;2023-09-19T10:28:06;8.32;;;2.25;;
80891;SDS011;70343;51.530;5.050;2023-09-19T10:30:45;11.32;;;1.75;;
80891;SDS011;70343;51.530;5.050;2023-09-19T10:33:13;9.25;;;1.90;;
80891;SDS011;70343;51.530;5.050;2023-09-19T10:35:42;7.28;;;1.77;;
80891;SDS011;70343;51.530;5.050;2023-09-19T10:38:10;8.13;;;2.13;;
80891;SDS011;70343;51.530;5.050;2023-09-19T10:40:37;6.80;;;2.00;;
80891;SDS011;70343;51.530;5.050;2023-09-19T10:43:10;5.28;;;1.60;;
80891;SDS011;70343;51.530;5.050;2023-09-19T10:45:37;4.78;;;1.35;;
80891;SDS011;70343;51.530;5.050;2023-09-19T10:48:05;9.23;;;1.48;;
80891;SDS011;70343;51.530;5.050;2023-09-19T10:50:43;5.65;;;1.40;;
80891;SDS011;70343;51.530;5.050;2023-09-19T10:53:14;7.72;;;1.50;;
80891;SDS011;70343;51.530;5.050;2023-09-19T10:55:42;2.28;;;1.10;;
80891;SDS011;70343;51.530;5.050;2023-09-19T10:58:31;7.00;;;1.52;;
80891;SDS011;70343;51.530;5.050;2023-09-19T11:01:04;7.32;;;2.28;;
80891;SDS011;70343;51.530;5.050;2023-09-19T11:03:38;6.40;;;1.00;;
80891;SDS011;70343;51.530;5.050;2023-09-19T11:14:15;6.25;;;1.63;;
80891;SDS011;70343;51.530;5.050;2023-09-19T11:30:43;6.32;;;1.33;;
80891;SDS011;70343;51.530;5.050;2023-09-19T11:49:17;2.70;;;0.80;;
80891;SDS011;70343;51.530;5.050;2023-09-19T11:51:50;5.30;;;1.00;;
80891;SDS011;70343;51.530;5.050;2023-09-19T11:54:19;6.53;;;2.00;;
80891;SDS011;70343;51.530;5.050;2023-09-19T11:56:50;2.83;;;0.77;;
80891;SDS011;70343;51.530;5.050;2023-09-19T11:59:29;2.17;;;0.88;;
80891;SDS011;70343;51.530;5.050;2023-09-19T12:01:56;3.00;;;1.15;;
80891;SDS011;70343;51.530;5.050;2023-09-19T12:07:07;3.72;;;0.93;;
80891;SDS011;70343;51.530;5.050;2023-09-19T12:09:39;3.50;;;1.05;;
80891;SDS011;70343;51.530;5.050;2023-09-19T12:12:09;4.03;;;0.90;;
80891;SDS011;70343;51.530;5.050;2023-09-19T12:14:37;4.78;;;1.13;;
80891;SDS011;70343;51.530;5.050;2023-09-19T12:17:04;3.60;;;1.20;;
80891;SDS011;70343;51.530;5.050;2023-09-19T12:19:30;4.82;;;1.20;;
80891;SDS011;70343;51.530;5.050;2023-09-19T12:21:56;5.10;;;0.80;;
80891;SDS011;70343;51.530;5.050;2023-09-19T12:24:23;3.47;;;1.00;;
80891;SDS011;70343;51.530;5.050;2023-09-19T12:26:59;5.32;;;1.42;;
80891;SDS011;70343;51.530;5.050;2023-09-19T12:29:26;3.85;;;0.90;;
80891;SDS011;70343;51.530;5.050;2023-09-19T12:31:53;5.13;;;1.35;;
80891;SDS011;70343;51.530;5.050;2023-09-19T12:34:29;2.65;;;0.73;;
80891;SDS011;70343;51.530;5.050;2023-09-19T12:37:09;3.47;;;1.20;;
80891;SDS011;70343;51.530;5.050;2023-09-19T12:39:46;2.05;;;1.05;;
80891;SDS011;70343;51.530;5.050;2023-09-19T12:42:17;4.05;;;1.00;;
80891;SDS011;70343;51.530;5.050;2023-09-19T12:44:46;3.33;;;0.68;;
80891;SDS011;70343;51.530;5.050;2023-09-19T12:47:17;4.78;;;0.90;;
80891;SDS011;70343;51.530;5.050;2023-09-19T12:52:44;3.88;;;0.80;;
80891;SDS011;70343;51.530;5.050;2023-09-19T12:55:30;2.35;;;0.70;;
80891;SDS011;70343;51.530;5.050;2023-09-19T13:00:43;1.92;;;0.60;;
80891;SDS011;70343;51.530;5.050;2023-09-19T13:03:13;1.80;;;0.80;;
80891;SDS011;70343;51.530;5.050;2023-09-19T13:05:56;3.13;;;1.08;;
80891;SDS011;70343;51.530;5.050;2023-09-19T13:11:06;1.77;;;0.63;;
80891;SDS011;70343;51.530;5.050;2023-09-19T13:13:45;2.38;;;0.70;;
80891;SDS011;70343;51.530;5.050;2023-09-19T13:16:19;2.38;;;0.70;;
80891;SDS011;70343;51.530;5.050;2023-09-19T13:18:48;3.95;;;0.70;;
80891;SDS011;70343;51.530;5.050;2023-09-19T13:21:30;3.60;;;1.00;;
80891;SDS011;70343;51.530;5.050;2023-09-19T13:24:18;3.30;;;0.80;;
80891;SDS011;70343;51.530;5.050;2023-09-19T13:26:51;4.10;;;0.88;;
80891;SDS011;70343;51.530;5.050;2023-09-19T13:29:16;2.80;;;0.88;;
80891;SDS011;70343;51.530;5.050;2023-09-19T13:31:47;5.78;;;1.10;;
80891;SDS011;70343;51.530;5.050;2023-09-19T13:34:13;3.15;;;0.73;;
80891;SDS011;70343;51.530;5.050;2023-09-19T13:36:41;2.20;;;0.77;;
80891;SDS011;70343;51.530;5.050;2023-09-19T13:39:07;2.30;;;0.73;;
80891;SDS011;70343;51.530;5.050;2023-09-19T13:41:34;2.90;;;0.80;;
80891;SDS011;70343;51.530;5.050;2023-09-19T13:44:03;4.90;;;0.93;;
80891;SDS011;70343;51.530;5.050;2023-09-19T13:46:29;3.08;;;0.98;;
80891;SDS011;70343;51.530;5.050;2023-09-19T13:48:58;2.80;;;0.70;;
80891;SDS011;70343;51.530;5.050;2023-09-19T13:51:25;4.63;;;1.40;;
80891;SDS011;70343;51.530;5.050;2023-09-19T13:53:51;4.97;;;0.70;;
80891;SDS011;70343;51.530;5.050;2023-09-19T13:56:17;3.90;;;0.70;;
80891;SDS011;70343;51.530;5.050;2023-09-19T13:58:42;2.58;;;1.10;;
80891;SDS011;70343;51.530;5.050;2023-09-19T14:01:08;3.55;;;0.90;;
80891;SDS011;70343;51.530;5.050;2023-09-19T14:03:41;5.00;;;1.00;;
80891;SDS011;70343;51.530;5.050;2023-09-19T14:06:11;4.97;;;1.00;;
80891;SDS011;70343;51.530;5.050;2023-09-19T14:08:37;4.10;;;1.48;;
80891;SDS011;70343;51.530;5.050;2023-09-19T14:11:06;2.97;;;0.75;;
80891;SDS011;70343;51.530;5.050;2023-09-19T14:13:32;2.53;;;0.85;;
80891;SDS011;70343;51.530;5.050;2023-09-19T14:16:02;4.15;;;0.90;;
80891;SDS011;70343;51.530;5.050;2023-09-19T14:18:30;3.35;;;0.73;;
80891;SDS011;70343;51.530;5.050;2023-09-19T14:20:56;1.55;;;0.82;;
80891;SDS011;70343;51.530;5.050;2023-09-19T14:23:22;2.28;;;0.95;;
80891;SDS011;70343;51.530;5.050;2023-09-19T14:25:48;3.78;;;0.90;;
80891;SDS011;70343;51.530;5.050;2023-09-19T14:28:15;3.95;;;1.02;;
80891;SDS011;70343;51.530;5.050;2023-09-19T14:30:41;2.50;;;0.80;;
80891;SDS011;70343;51.530;5.050;2023-09-19T14:33:06;3.08;;;1.00;;
80891;SDS011;70343;51.530;5.050;2023-09-19T14:35:32;3.80;;;0.80;;
80891;SDS011;70343;51.530;5.050;2023-09-19T14:37:58;4.30;;;1.15;;
80891;SDS011;70343;51.530;5.050;2023-09-19T14:40:23;3.92;;;1.10;;
80891;SDS011;70343;51.530;5.050;2023-09-19T14:42:50;3.45;;;1.08;;
80891;SDS011;70343;51.530;5.050;2023-09-19T14:45:16;4.05;;;1.35;;
80891;SDS011;70343;51.530;5.050;2023-09-19T14:47:43;5.43;;;1.33;;
80891;SDS011;70343;51.530;5.050;2023-09-19T14:50:11;4.32;;;1.77;;
80891;SDS011;70343;51.530;5.050;2023-09-19T14:52:37;4.88;;;1.20;;
80891;SDS011;70343;51.530;5.050;2023-09-19T14:55:05;6.22;;;1.20;;
80891;SDS011;70343;51.530;5.050;2023-09-19T14:57:31;4.47;;;1.20;;
80891;SDS011;70343;51.530;5.050;2023-09-19T14:59:57;5.55;;;1.17;;
80891;SDS011;70343;51.530;5.050;2023-09-19T15:02:23;6.38;;;1.45;;
80891;SDS011;70343;51.530;5.050;2023-09-19T15:04:48;4.28;;;1.08;;
80891;SDS011;70343;51.530;5.050;2023-09-19T15:07:15;5.85;;;1.23;;
80891;SDS011;70343;51.530;5.050;2023-09-19T15:09:41;4.03;;;1.02;;
80891;SDS011;70343;51.530;5.050;2023-09-19T15:12:08;4.03;;;1.13;;
80891;SDS011;70343;51.530;5.050;2023-09-19T15:14:35;4.30;;;1.30;;
80891;SDS011;70343;51.530;5.050;2023-09-19T15:17:01;4.40;;;1.10;;
80891;SDS011;70343;51.530;5.050;2023-09-19T15:19:29;3.90;;;1.40;;
80891;SDS011;70343;51.530;5.050;2023-09-19T15:21:55;4.78;;;1.17;;
80891;SDS011;70343;51.530;5.050;2023-09-19T15:24:22;2.17;;;0.73;;
80891;SDS011;70343;51.530;5.050;2023-09-19T15:26:48;3.65;;;1.10;;
80891;SDS011;70343;51.530;5.050;2023-09-19T15:29:13;2.92;;;1.10;;
80891;SDS011;70343;51.530;5.050;2023-09-19T15:31:39;2.70;;;1.08;;
80891;SDS011;70343;51.530;5.050;2023-09-19T15:34:05;4.57;;;1.20;;
80891;SDS011;70343;51.530;5.050;2023-09-19T15:36:32;1.70;;;0.80;;
80891;SDS011;70343;51.530;5.050;2023-09-19T15:38:59;2.85;;;1.10;;
80891;SDS011;70343;51.530;5.050;2023-09-19T15:41:31;2.35;;;1.30;;
80891;SDS011;70343;51.530;5.050;2023-09-19T15:43:58;4.40;;;1.40;;
80891;SDS011;70343;51.530;5.050;2023-09-19T15:46:26;5.13;;;1.05;;
80891;SDS011;70343;51.530;5.050;2023-09-19T15:48:55;6.05;;;1.92;;
80891;SDS011;70343;51.530;5.050;2023-09-19T15:51:22;3.70;;;1.05;;
80891;SDS011;70343;51.530;5.050;2023-09-19T15:53:49;2.53;;;0.90;;
80891;SDS011;70343;51.530;5.050;2023-09-19T15:56:16;2.88;;;1.20;;
80891;SDS011;70343;51.530;5.050;2023-09-19T15:58:46;2.17;;;1.17;;
80891;SDS011;70343;51.530;5.050;2023-09-19T16:01:19;5.80;;;1.23;;
80891;SDS011;70343;51.530;5.050;2023-09-19T16:03:46;2.90;;;0.98;;
80891;SDS011;70343;51.530;5.050;2023-09-19T16:06:14;5.82;;;1.20;;